createdAt,value
2023-02-19T00:00:17.656Z,38.53
2023-02-19T00:00:57.127Z,37.33
2023-02-19T00:01:39.855Z,36.93
2023-02-19T00:02:27.622Z,37.23
2023-02-19T00:03:09.905Z,38.57
2023-02-19T00:03:56.615Z,40.33
2023-02-19T00:04:43.883Z,39.10
2023-02-19T00:05:22.810Z,37.03
2023-02-19T00:06:27.797Z,37.43
2023-02-19T00:07:46.958Z,37.63
2023-02-19T00:09:43.940Z,37.70
2023-02-19T00:10:22.917Z,39.33
2023-02-19T00:11:01.662Z,38.80
2023-02-19T00:11:40.632Z,41.17
2023-02-19T00:12:19.923Z,39.13
2023-02-19T00:12:58.626Z,37.57
2023-02-19T00:13:41.800Z,38.57
2023-02-19T00:15:00.344Z,38.13
2023-02-19T00:15:39.997Z,39.70
2023-02-19T00:18:02.675Z,37.23
2023-02-19T00:18:47.046Z,39.50
2023-02-19T00:19:26.674Z,39.60
2023-02-19T00:20:07.491Z,38.93
2023-02-19T00:20:47.495Z,38.00
2023-02-19T00:21:27.737Z,36.63
2023-02-19T00:22:07.146Z,39.30
2023-02-19T00:22:46.433Z,39.37
2023-02-19T00:23:27.106Z,37.00
2023-02-19T00:24:08.170Z,37.67
2023-02-19T00:24:49.216Z,38.60
2023-02-19T00:25:53.218Z,37.73
2023-02-19T00:26:32.630Z,37.83
2023-02-19T00:27:12.999Z,39.80
2023-02-19T00:28:32.554Z,38.87
2023-02-19T00:29:20.408Z,36.40
2023-02-19T00:29:59.963Z,39.33
2023-02-19T00:30:38.931Z,37.40
2023-02-19T00:31:22.631Z,39.60
2023-02-19T00:32:01.558Z,36.80
2023-02-19T00:34:28.682Z,38.07
2023-02-19T00:35:08.064Z,36.77
2023-02-19T00:35:47.141Z,34.87
2023-02-19T00:36:36.884Z,35.90
2023-02-19T00:37:17.222Z,37.47
2023-02-19T00:37:56.801Z,36.87
2023-02-19T00:39:13.616Z,37.07
2023-02-19T00:39:54.617Z,37.13
2023-02-19T00:40:33.961Z,35.10
2023-02-19T00:41:20.676Z,36.93
2023-02-19T00:42:00.967Z,38.90
2023-02-19T00:42:39.920Z,37.17
2023-02-19T00:43:22.102Z,38.30
2023-02-19T00:44:10.852Z,36.57
2023-02-19T00:44:49.992Z,35.97
2023-02-19T00:45:32.018Z,36.50
2023-02-19T00:46:10.965Z,36.63
2023-02-19T00:46:53.035Z,37.93
2023-02-19T00:47:34.171Z,36.23
2023-02-19T00:48:14.283Z,36.37
2023-02-19T00:49:30.929Z,36.47
2023-02-19T00:50:18.521Z,37.40
2023-02-19T00:50:57.921Z,37.40
2023-02-19T00:51:39.879Z,39.00
2023-02-19T00:52:22.122Z,38.97
2023-02-19T00:53:01.602Z,38.13
2023-02-19T00:53:40.694Z,38.13
2023-02-19T00:54:19.655Z,37.33
2023-02-19T00:55:06.867Z,37.13
2023-02-19T00:55:45.747Z,36.37
2023-02-19T00:56:25.103Z,35.90
2023-02-19T00:57:07.574Z,36.47
2023-02-19T00:57:56.092Z,35.50
2023-02-19T00:58:35.716Z,34.63
2023-02-19T01:00:04.488Z,36.80
2023-02-19T01:00:43.940Z,36.40
2023-02-19T01:02:09.800Z,36.87
2023-02-19T01:02:48.911Z,38.60
2023-02-19T01:04:08.534Z,37.40
2023-02-19T01:04:50.466Z,37.27
2023-02-19T01:06:20.838Z,34.77
2023-02-19T01:06:59.981Z,35.77
2023-02-19T01:07:41.818Z,36.00
2023-02-19T01:08:21.386Z,34.63
2023-02-19T01:09:01.283Z,35.00
2023-02-19T01:09:41.089Z,35.27
2023-02-19T01:10:20.701Z,34.03
2023-02-19T01:11:40.979Z,35.30
2023-02-19T01:12:57.920Z,37.07
2023-02-19T01:14:20.810Z,35.40
2023-02-19T01:15:00.570Z,34.80
2023-02-19T01:15:40.817Z,34.63
2023-02-19T01:17:10.659Z,35.20
2023-02-19T01:18:14.817Z,35.23
2023-02-19T01:21:19.469Z,34.47
2023-02-19T01:22:39.975Z,34.63
2023-02-19T01:24:00.116Z,35.63
2023-02-19T01:25:03.432Z,36.20
2023-02-19T01:25:42.504Z,35.30
2023-02-19T01:26:25.804Z,34.13
2023-02-19T01:27:59.017Z,36.00
2023-02-19T01:28:39.034Z,35.23
2023-02-19T01:29:17.761Z,36.80
2023-02-19T01:30:00.118Z,35.83
2023-02-19T01:30:38.757Z,35.97
2023-02-19T01:31:31.161Z,36.47
2023-02-19T01:32:18.666Z,35.00
2023-02-19T01:32:57.788Z,35.17
2023-02-19T01:33:36.988Z,34.87
2023-02-19T01:34:40.266Z,35.10
2023-02-19T01:37:17.687Z,36.90
2023-02-19T01:37:58.175Z,35.63
2023-02-19T01:38:41.333Z,35.03
2023-02-19T01:39:20.893Z,36.20
2023-02-19T01:39:59.912Z,35.10
2023-02-19T01:40:38.745Z,34.70
2023-02-19T01:41:24.416Z,33.97
2023-02-19T01:42:03.269Z,32.80
2023-02-19T01:42:55.703Z,34.17
2023-02-19T01:44:08.216Z,35.20
2023-02-19T01:45:15.956Z,35.33
2023-02-19T01:45:55.318Z,35.97
2023-02-19T01:46:39.753Z,35.53
2023-02-19T01:47:20.454Z,36.73
2023-02-19T01:48:50.409Z,36.50
2023-02-19T01:49:29.552Z,36.37
2023-02-19T01:50:09.515Z,35.63
2023-02-19T01:51:21.623Z,33.50
2023-02-19T01:52:17.847Z,32.80
2023-02-19T01:52:57.380Z,34.37
2023-02-19T01:53:46.194Z,34.37
2023-02-19T01:54:29.798Z,34.30
2023-02-19T01:55:47.418Z,35.03
2023-02-19T01:56:30.210Z,35.07
2023-02-19T01:57:55.646Z,35.30
2023-02-19T01:58:35.395Z,34.30
2023-02-19T01:59:14.404Z,34.80
2023-02-19T02:00:03.801Z,35.53
2023-02-19T02:00:43.842Z,34.77
2023-02-19T02:01:25.904Z,33.43
2023-02-19T02:02:14.683Z,34.33
2023-02-19T02:02:58.060Z,32.57
2023-02-19T02:03:48.960Z,34.83
2023-02-19T02:04:31.924Z,35.23
2023-02-19T02:06:13.456Z,34.53
2023-02-19T02:08:40.385Z,33.67
2023-02-19T02:09:42.814Z,32.33
2023-02-19T02:11:13.430Z,35.07
2023-02-19T02:11:56.290Z,34.17
2023-02-19T02:12:40.048Z,32.77
2023-02-19T02:13:21.539Z,33.07
2023-02-19T02:14:01.001Z,34.10
2023-02-19T02:14:42.560Z,33.27
2023-02-19T02:15:29.817Z,33.67
2023-02-19T02:18:31.729Z,35.17
2023-02-19T02:19:55.843Z,34.20
2023-02-19T02:20:59.538Z,33.40
2023-02-19T02:23:11.270Z,32.93
2023-02-19T02:25:08.020Z,32.67
2023-02-19T02:25:53.753Z,32.27
2023-02-19T02:27:26.612Z,33.03
2023-02-19T02:29:08.752Z,32.43
2023-02-19T02:30:09.581Z,31.63
2023-02-19T02:30:51.495Z,32.07
2023-02-19T02:31:38.145Z,30.70
2023-02-19T02:32:18.893Z,31.20
2023-02-19T02:33:13.889Z,32.73
2023-02-19T02:33:54.431Z,33.00
2023-02-19T02:35:19.408Z,32.67
2023-02-19T02:36:42.394Z,30.17
2023-02-19T02:37:54.687Z,32.07
2023-02-19T02:38:41.822Z,31.60
2023-02-19T02:39:20.548Z,32.13
2023-02-19T02:40:03.965Z,30.57
2023-02-19T02:40:46.528Z,30.90
2023-02-19T02:41:30.205Z,30.97
2023-02-19T02:42:27.553Z,31.53
2023-02-19T02:43:07.942Z,30.53
2023-02-19T02:43:54.888Z,29.70
2023-02-19T02:44:35.588Z,29.27
2023-02-19T02:45:51.238Z,29.07
2023-02-19T02:46:30.233Z,30.70
2023-02-19T02:47:06.408Z,30.47
2023-02-19T02:47:50.694Z,30.57
2023-02-19T02:48:45.714Z,29.40
2023-02-19T02:49:24.455Z,29.47
2023-02-19T02:50:41.523Z,28.60
2023-02-19T02:51:52.898Z,27.73
2023-02-19T02:52:50.919Z,28.53
2023-02-19T02:54:17.369Z,28.23
2023-02-19T02:54:55.447Z,28.30
2023-02-19T02:55:41.727Z,29.03
2023-02-19T02:56:24.824Z,27.67
2023-02-19T02:57:09.424Z,27.80
2023-02-19T02:57:52.386Z,27.80
2023-02-19T02:58:34.206Z,28.47
2023-02-19T02:59:21.823Z,28.80
2023-02-19T03:00:00.882Z,27.90
2023-02-19T03:01:06.439Z,27.70
2023-02-19T03:02:12.754Z,28.43
2023-02-19T03:02:53.934Z,28.53
2023-02-19T03:03:47.777Z,28.97
2023-02-19T03:05:10.435Z,27.80
2023-02-19T03:05:52.682Z,27.37
2023-02-19T03:06:36.463Z,27.93
2023-02-19T03:07:15.905Z,27.90
2023-02-19T03:08:15.407Z,27.10
2023-02-19T03:09:40.641Z,29.07
2023-02-19T03:10:31.921Z,28.57
2023-02-19T03:11:31.740Z,28.37
2023-02-19T03:12:37.708Z,28.60
2023-02-19T03:13:47.353Z,28.53
2023-02-19T03:14:59.759Z,27.50
2023-02-19T03:16:27.535Z,26.50
2023-02-19T03:17:40.735Z,28.10
2023-02-19T03:19:20.411Z,28.60
2023-02-19T03:20:06.165Z,27.07
2023-02-19T03:22:06.398Z,27.97
2023-02-19T03:22:47.221Z,27.40
2023-02-19T03:24:27.405Z,28.20
2023-02-19T03:26:03.507Z,26.47
2023-02-19T03:26:53.958Z,25.50
2023-02-19T03:27:35.659Z,26.20
2023-02-19T03:28:14.846Z,26.33
2023-02-19T03:29:15.382Z,25.90
2023-02-19T03:30:01.937Z,25.57
2023-02-19T03:31:18.599Z,26.17
2023-02-19T03:32:09.062Z,26.07
2023-02-19T03:32:48.611Z,25.60
2023-02-19T03:33:26.761Z,25.40
2023-02-19T03:34:13.373Z,25.67
2023-02-19T03:35:02.501Z,26.47
2023-02-19T03:36:19.560Z,25.33
2023-02-19T03:37:09.891Z,25.30
2023-02-19T03:39:30.787Z,24.33
2023-02-19T03:41:06.513Z,25.10
2023-02-19T03:43:28.585Z,24.90
2023-02-19T03:44:03.401Z,24.37
2023-02-19T03:45:03.700Z,24.90
2023-02-19T03:45:45.649Z,24.53
2023-02-19T03:46:52.221Z,25.37
2023-02-19T03:48:13.738Z,24.30
2023-02-19T03:49:53.993Z,25.30
2023-02-19T03:50:41.558Z,24.57
2023-02-19T03:51:20.493Z,23.73
2023-02-19T03:52:22.694Z,23.03
2023-02-19T03:53:01.670Z,23.40
2023-02-19T03:54:20.806Z,23.43
2023-02-19T03:56:02.682Z,24.20
2023-02-19T03:57:00.100Z,22.67
2023-02-19T03:58:03.971Z,22.77
2023-02-19T03:58:54.115Z,23.10
2023-02-19T04:00:10.263Z,23.73
2023-02-19T04:01:05.024Z,23.13
2023-02-19T04:01:56.950Z,24.07
2023-02-19T04:02:39.549Z,23.30
2023-02-19T04:03:23.776Z,23.63
2023-02-19T04:04:20.071Z,23.27
2023-02-19T04:05:14.023Z,22.93
2023-02-19T04:06:12.180Z,24.07
2023-02-19T04:06:57.589Z,22.53
2023-02-19T04:07:36.850Z,23.20
2023-02-19T04:08:19.386Z,23.30
2023-02-19T04:08:58.602Z,22.93
2023-02-19T04:09:49.974Z,22.60
2023-02-19T04:10:33.028Z,22.70
2023-02-19T04:11:18.607Z,22.47
2023-02-19T04:11:58.905Z,22.63
2023-02-19T04:12:45.001Z,22.33
2023-02-19T04:13:32.019Z,22.50
2023-02-19T04:14:30.540Z,23.70
2023-02-19T04:15:35.321Z,23.13
2023-02-19T04:17:05.583Z,21.93
2023-02-19T04:18:00.806Z,22.60
2023-02-19T04:20:01.598Z,22.83
2023-02-19T04:20:44.826Z,22.83
2023-02-19T04:22:02.725Z,22.33
2023-02-19T04:22:43.330Z,21.63
2023-02-19T04:24:19.886Z,21.53
2023-02-19T04:25:00.975Z,22.43
2023-02-19T04:26:05.312Z,22.53
2023-02-19T04:26:46.192Z,23.33
2023-02-19T04:27:51.260Z,23.33
2023-02-19T04:28:30.431Z,21.83
2023-02-19T04:29:09.960Z,22.13
2023-02-19T04:30:28.528Z,21.73
2023-02-19T04:32:27.976Z,21.37
2023-02-19T04:33:08.480Z,21.97
2023-02-19T04:33:47.924Z,22.73
2023-02-19T04:34:29.890Z,23.33
2023-02-19T04:37:25.091Z,21.87
2023-02-19T04:38:44.506Z,21.77
2023-02-19T04:39:23.949Z,20.97
2023-02-19T04:40:03.567Z,20.93
2023-02-19T04:40:42.852Z,21.10
2023-02-19T04:41:22.049Z,22.30
2023-02-19T04:42:04.644Z,22.20
2023-02-19T04:42:44.814Z,20.50
2023-02-19T04:43:24.075Z,20.87
2023-02-19T04:44:06.028Z,21.23
2023-02-19T04:44:46.021Z,20.87
2023-02-19T04:45:27.995Z,20.57
2023-02-19T04:46:07.046Z,20.80
2023-02-19T04:46:48.690Z,21.97
2023-02-19T04:47:28.446Z,21.40
2023-02-19T04:48:08.359Z,21.10
2023-02-19T04:48:47.901Z,21.47
2023-02-19T04:51:38.245Z,20.67
2023-02-19T04:52:17.992Z,21.47
2023-02-19T04:52:57.895Z,20.97
2023-02-19T04:53:40.975Z,21.30
2023-02-19T04:54:57.843Z,21.43
2023-02-19T04:55:39.111Z,21.00
2023-02-19T04:56:21.147Z,21.33
2023-02-19T04:57:56.877Z,21.90
2023-02-19T04:58:37.536Z,21.70
2023-02-19T05:00:51.998Z,20.27
2023-02-19T05:01:33.920Z,20.47
2023-02-19T05:02:46.589Z,19.97
2023-02-19T05:03:26.043Z,20.67
2023-02-19T05:04:05.610Z,20.90
2023-02-19T05:04:52.721Z,19.83
2023-02-19T05:05:32.674Z,19.77
2023-02-19T05:06:14.977Z,19.27
2023-02-19T05:07:53.608Z,20.03
2023-02-19T05:08:33.644Z,21.37
2023-02-19T05:10:05.207Z,20.80
2023-02-19T05:10:49.675Z,21.17
2023-02-19T05:11:27.639Z,21.10
2023-02-19T05:12:06.530Z,20.47
2023-02-19T05:12:46.452Z,21.10
2023-02-19T05:14:07.183Z,20.63
2023-02-19T05:15:25.904Z,20.47
2023-02-19T05:17:08.642Z,20.57
2023-02-19T05:18:35.592Z,20.37
2023-02-19T05:19:16.070Z,20.13
2023-02-19T05:19:56.074Z,20.57
2023-02-19T05:20:36.815Z,20.93
2023-02-19T05:21:15.951Z,19.73
2023-02-19T05:23:36.117Z,20.30
2023-02-19T05:24:16.747Z,18.60
2023-02-19T05:25:38.741Z,20.20
2023-02-19T05:26:21.754Z,19.93
2023-02-19T05:27:01.963Z,19.87
2023-02-19T05:27:41.618Z,19.33
2023-02-19T05:28:28.771Z,18.90
2023-02-19T05:29:09.038Z,19.17
2023-02-19T05:30:26.193Z,19.60
2023-02-19T05:31:09.725Z,20.43
2023-02-19T05:31:49.526Z,20.67
2023-02-19T05:32:38.587Z,18.53
2023-02-19T05:33:17.228Z,19.50
2023-02-19T05:34:04.321Z,20.07
2023-02-19T05:34:44.542Z,19.00
2023-02-19T05:35:23.621Z,19.30
2023-02-19T05:36:07.118Z,19.33
2023-02-19T05:36:47.573Z,20.17
2023-02-19T05:37:35.466Z,19.40
2023-02-19T05:38:15.660Z,19.80
2023-02-19T05:38:58.222Z,19.57
2023-02-19T05:39:37.533Z,19.70
2023-02-19T05:41:05.077Z,19.03
2023-02-19T05:41:47.172Z,19.77
2023-02-19T05:42:28.069Z,19.90
2023-02-19T05:44:39.471Z,20.10
2023-02-19T05:46:20.231Z,19.83
2023-02-19T05:46:59.534Z,18.83
2023-02-19T05:47:46.442Z,19.00
2023-02-19T05:48:35.559Z,19.60
2023-02-19T05:49:17.624Z,19.83
2023-02-19T05:49:59.498Z,19.30
2023-02-19T05:50:41.623Z,19.33
2023-02-19T05:51:24.150Z,19.40
2023-02-19T05:52:17.358Z,19.53
2023-02-19T05:54:29.654Z,20.10
2023-02-19T05:55:09.088Z,18.43
2023-02-19T05:55:48.657Z,19.87
2023-02-19T05:56:28.304Z,19.60
2023-02-19T05:57:10.525Z,19.57
2023-02-19T05:59:15.953Z,19.50
2023-02-19T06:00:34.672Z,20.17
2023-02-19T06:01:14.164Z,20.70
2023-02-19T06:02:32.591Z,18.93
2023-02-19T06:03:36.110Z,19.60
2023-02-19T06:05:19.989Z,20.10
2023-02-19T06:08:52.830Z,19.70
2023-02-19T06:09:33.426Z,19.33
2023-02-19T06:10:13.818Z,20.03
2023-02-19T06:10:53.703Z,18.23
2023-02-19T06:11:32.966Z,18.20
2023-02-19T06:12:16.859Z,19.00
2023-02-19T06:14:50.720Z,19.47
2023-02-19T06:17:17.264Z,19.03
2023-02-19T06:17:57.071Z,18.53
2023-02-19T06:19:13.255Z,19.07
2023-02-19T06:20:02.168Z,19.27
2023-02-19T06:21:22.617Z,19.00
2023-02-19T06:22:02.101Z,19.37
2023-02-19T06:22:41.241Z,19.10
2023-02-19T06:23:20.508Z,17.83
2023-02-19T06:24:24.170Z,18.40
2023-02-19T06:25:04.985Z,17.77
2023-02-19T06:28:10.761Z,20.10
2023-02-19T06:30:08.294Z,17.63
2023-02-19T06:30:51.250Z,18.57
2023-02-19T06:31:30.867Z,17.70
2023-02-19T06:32:49.104Z,18.73
2023-02-19T06:33:30.140Z,19.00
2023-02-19T06:34:47.716Z,18.93
2023-02-19T06:35:27.209Z,18.37
2023-02-19T06:36:08.738Z,18.83
2023-02-19T06:37:53.343Z,18.50
2023-02-19T06:39:11.889Z,19.10
2023-02-19T06:40:28.697Z,17.43
2023-02-19T06:41:08.336Z,17.83
2023-02-19T06:41:58.439Z,18.23
2023-02-19T06:43:02.664Z,17.97
2023-02-19T06:43:41.027Z,18.20
2023-02-19T06:44:52.263Z,18.53
2023-02-19T06:45:31.573Z,19.27
2023-02-19T06:46:10.315Z,18.47
2023-02-19T06:46:49.789Z,18.67
2023-02-19T06:47:35.404Z,18.00
2023-02-19T06:48:15.524Z,18.17
2023-02-19T06:48:57.545Z,18.83
2023-02-19T06:49:39.633Z,18.03
2023-02-19T06:50:43.260Z,18.57
2023-02-19T06:53:27.732Z,19.27
2023-02-19T06:54:06.357Z,18.33
2023-02-19T06:54:46.030Z,18.37
2023-02-19T06:55:28.646Z,18.50
2023-02-19T06:56:30.639Z,17.60
2023-02-19T06:57:12.646Z,17.93
2023-02-19T06:57:52.338Z,18.60
2023-02-19T06:58:34.044Z,18.07
2023-02-19T06:59:16.997Z,18.13
2023-02-19T06:59:56.635Z,17.47
2023-02-19T07:00:38.317Z,18.27
2023-02-19T07:01:19.193Z,18.17
2023-02-19T07:02:00.054Z,18.13
2023-02-19T07:02:41.120Z,18.23
2023-02-19T07:03:44.712Z,18.03
2023-02-19T07:04:23.554Z,18.93
2023-02-19T07:05:02.478Z,18.97
2023-02-19T07:05:43.958Z,18.93
2023-02-19T07:06:25.532Z,18.03
2023-02-19T07:07:51.613Z,19.47
2023-02-19T07:08:40.405Z,18.47
2023-02-19T07:11:19.806Z,19.00
2023-02-19T07:12:23.059Z,18.37
2023-02-19T07:13:03.098Z,18.83
2023-02-19T07:13:42.631Z,19.13
2023-02-19T07:14:29.893Z,19.07
2023-02-19T07:15:09.903Z,19.23
2023-02-19T07:15:52.000Z,18.33
2023-02-19T07:16:56.370Z,17.67
2023-02-19T07:18:16.632Z,17.97
2023-02-19T07:18:55.257Z,18.17
2023-02-19T07:19:44.382Z,19.47
2023-02-19T07:20:57.120Z,18.87
2023-02-19T07:21:37.968Z,19.03
2023-02-19T07:22:57.634Z,18.03
2023-02-19T07:23:36.155Z,17.93
2023-02-19T07:24:15.934Z,18.33
2023-02-19T07:25:19.595Z,18.77
2023-02-19T07:25:59.651Z,20.20
2023-02-19T07:26:46.410Z,20.73
2023-02-19T07:27:28.596Z,18.80
2023-02-19T07:28:08.036Z,18.50
2023-02-19T07:28:55.531Z,18.93
2023-02-19T07:29:36.647Z,19.37
2023-02-19T07:30:15.660Z,20.20
2023-02-19T07:31:01.032Z,19.67
2023-02-19T07:31:40.659Z,20.50
2023-02-19T07:32:45.574Z,19.90
2023-02-19T07:34:27.967Z,19.23
2023-02-19T07:36:06.559Z,20.17
2023-02-19T07:37:48.265Z,20.10
2023-02-19T07:39:09.141Z,19.40
2023-02-19T07:39:48.197Z,19.47
2023-02-19T07:40:28.737Z,19.27
2023-02-19T07:41:11.565Z,19.07
2023-02-19T07:41:52.601Z,19.40
2023-02-19T07:42:32.246Z,19.93
2023-02-19T07:43:11.601Z,20.93
2023-02-19T07:43:51.646Z,19.87
2023-02-19T07:44:55.203Z,19.70
2023-02-19T07:45:38.186Z,18.07
2023-02-19T07:47:20.129Z,19.07
2023-02-19T07:48:24.656Z,19.47
2023-02-19T07:49:35.645Z,18.57
2023-02-19T07:50:17.627Z,19.00
2023-02-19T07:50:56.346Z,18.20
2023-02-19T07:51:39.244Z,19.23
2023-02-19T07:52:31.502Z,19.13
2023-02-19T07:53:11.619Z,18.87
2023-02-19T07:54:15.395Z,18.97
2023-02-19T07:54:54.371Z,18.87
2023-02-19T07:55:35.442Z,18.70
2023-02-19T07:56:14.987Z,18.23
2023-02-19T07:57:31.661Z,18.50
2023-02-19T07:59:31.615Z,17.93
2023-02-19T08:00:52.185Z,19.67
2023-02-19T08:02:15.192Z,19.33
2023-02-19T08:04:37.046Z,18.83
2023-02-19T08:05:57.835Z,19.73
2023-02-19T08:06:41.591Z,18.83
2023-02-19T08:08:01.727Z,18.40
2023-02-19T08:08:41.755Z,18.60
2023-02-19T08:09:21.561Z,17.80
2023-02-19T08:10:21.428Z,18.13
2023-02-19T08:11:38.292Z,18.70
2023-02-19T08:12:36.426Z,17.90
2023-02-19T08:14:00.496Z,18.93
2023-02-19T08:14:48.724Z,17.60
2023-02-19T08:15:33.364Z,18.47
2023-02-19T08:16:36.711Z,19.10
2023-02-19T08:17:30.319Z,18.40
2023-02-19T08:18:12.348Z,18.30
2023-02-19T08:18:52.889Z,18.67
2023-02-19T08:19:32.751Z,18.93
2023-02-19T08:20:11.606Z,18.47
2023-02-19T08:20:56.085Z,17.77
2023-02-19T08:21:35.622Z,18.13
2023-02-19T08:22:16.443Z,18.17
2023-02-19T08:22:55.627Z,18.20
2023-02-19T08:24:34.019Z,18.00
2023-02-19T08:25:14.591Z,17.53
2023-02-19T08:26:00.724Z,17.77
2023-02-19T08:27:57.638Z,18.83
2023-02-19T08:28:36.408Z,19.37
2023-02-19T08:29:30.546Z,19.23
2023-02-19T08:30:34.454Z,19.13
2023-02-19T08:32:32.070Z,19.07
2023-02-19T08:33:11.168Z,18.47
2023-02-19T08:33:53.681Z,19.40
2023-02-19T08:34:32.281Z,20.07
2023-02-19T08:35:19.457Z,20.67
2023-02-19T08:36:04.783Z,20.67
2023-02-19T08:36:46.565Z,20.00
2023-02-19T08:37:25.574Z,18.17
2023-02-19T08:38:07.486Z,18.37
2023-02-19T08:38:49.648Z,19.47
2023-02-19T08:39:32.937Z,18.83
2023-02-19T08:40:13.483Z,18.83
2023-02-19T08:40:52.665Z,19.73
2023-02-19T08:41:41.594Z,20.23
2023-02-19T08:42:24.026Z,20.73
2023-02-19T08:43:06.694Z,21.27
2023-02-19T08:44:28.167Z,19.93
2023-02-19T08:45:08.070Z,21.00
2023-02-19T08:45:48.913Z,19.93
2023-02-19T08:47:00.797Z,20.33
2023-02-19T08:48:19.576Z,20.40
2023-02-19T08:49:39.899Z,19.60
2023-02-19T08:51:07.419Z,21.47
2023-02-19T08:51:46.641Z,21.47
2023-02-19T08:53:06.150Z,19.93
2023-02-19T08:53:48.734Z,22.10
2023-02-19T08:54:52.045Z,22.23
2023-02-19T08:55:31.812Z,21.03
2023-02-19T08:56:16.557Z,21.43
2023-02-19T08:57:35.821Z,21.03
2023-02-19T08:58:39.411Z,21.50
2023-02-19T08:59:59.688Z,21.70
2023-02-19T09:01:03.711Z,22.53
2023-02-19T09:02:23.909Z,21.07
2023-02-19T09:03:03.721Z,21.47
2023-02-19T09:03:44.225Z,21.27
2023-02-19T09:05:45.333Z,21.90
2023-02-19T09:06:27.653Z,22.23
2023-02-19T09:07:46.085Z,21.40
2023-02-19T09:09:04.118Z,21.47
2023-02-19T09:11:03.635Z,22.17
2023-02-19T09:11:42.529Z,22.73
2023-02-19T09:12:33.744Z,23.70
2023-02-19T09:15:15.638Z,22.63
2023-02-19T09:16:40.651Z,23.03
2023-02-19T09:17:19.615Z,24.10
2023-02-19T09:18:23.888Z,22.20
2023-02-19T09:19:41.885Z,23.87
2023-02-19T09:21:25.502Z,22.87
2023-02-19T09:22:04.235Z,24.53
2023-02-19T09:23:07.878Z,23.90
2023-02-19T09:23:50.324Z,22.37
2023-02-19T09:24:29.770Z,22.53
2023-02-19T09:25:33.386Z,20.93
2023-02-19T09:28:25.625Z,22.40
2023-02-19T09:29:29.196Z,23.83
2023-02-19T09:31:06.594Z,22.93
2023-02-19T09:34:07.842Z,24.93
2023-02-19T09:35:12.142Z,24.17
2023-02-19T09:35:55.750Z,23.13
2023-02-19T09:36:35.907Z,24.07
2023-02-19T09:37:14.876Z,24.10
2023-02-19T09:38:02.099Z,22.97
2023-02-19T09:38:42.250Z,23.80
2023-02-19T09:39:46.336Z,23.07
2023-02-19T09:41:32.053Z,24.33
2023-02-19T09:42:52.076Z,23.37
2023-02-19T09:43:58.665Z,24.20
2023-02-19T09:45:25.098Z,22.93
2023-02-19T09:47:47.267Z,23.03
2023-02-19T09:49:38.838Z,21.80
2023-02-19T09:51:11.259Z,21.10
2023-02-19T09:52:54.420Z,21.30
2023-02-19T09:53:43.649Z,22.07
2023-02-19T09:55:36.914Z,21.30
2023-02-19T09:56:17.294Z,21.77
2023-02-19T09:58:02.577Z,21.63
2023-02-19T09:58:44.366Z,21.47
2023-02-19T09:59:40.887Z,22.23
2023-02-19T10:00:21.440Z,21.33
2023-02-19T10:01:26.960Z,20.77
2023-02-19T10:02:30.969Z,20.23
2023-02-19T10:03:14.540Z,21.57
2023-02-19T10:04:10.185Z,21.13
2023-02-19T10:04:52.606Z,19.67
2023-02-19T10:07:15.368Z,21.00
2023-02-19T10:07:58.731Z,20.40
2023-02-19T10:08:48.620Z,20.50
2023-02-19T10:09:31.390Z,20.47
2023-02-19T10:10:14.340Z,20.90
2023-02-19T10:10:55.065Z,20.17
2023-02-19T10:11:34.808Z,20.17
2023-02-19T10:12:24.953Z,19.53
2023-02-19T10:13:28.197Z,19.97
2023-02-19T10:14:19.503Z,20.37
2023-02-19T10:15:23.169Z,20.20
2023-02-19T10:17:27.507Z,18.80
2023-02-19T10:18:49.821Z,18.77
2023-02-19T10:20:15.789Z,19.40
2023-02-19T10:20:57.643Z,19.23
2023-02-19T10:21:41.382Z,18.07
2023-02-19T10:22:21.629Z,19.23
2023-02-19T10:23:19.500Z,19.20
2023-02-19T10:23:59.207Z,18.17
2023-02-19T10:24:51.890Z,19.00
2023-02-19T10:25:43.356Z,18.87
2023-02-19T10:26:27.696Z,19.17
2023-02-19T10:27:18.264Z,18.20
2023-02-19T10:28:07.306Z,19.40
2023-02-19T10:28:49.710Z,19.70
2023-02-19T10:30:16.797Z,19.37
2023-02-19T10:31:01.413Z,18.33
2023-02-19T10:32:10.438Z,18.63
2023-02-19T10:33:01.285Z,17.17
2023-02-19T10:33:55.946Z,18.23
2023-02-19T10:34:37.081Z,18.37
2023-02-19T10:35:30.242Z,17.73
2023-02-19T10:36:37.618Z,17.83
2023-02-19T10:38:59.510Z,17.90
2023-02-19T10:39:49.968Z,18.30
2023-02-19T10:40:32.378Z,18.80
2023-02-19T10:41:30.880Z,17.90
2023-02-19T10:42:50.815Z,18.57
2023-02-19T10:43:37.155Z,17.33
2023-02-19T10:45:06.284Z,18.43
2023-02-19T10:45:50.454Z,17.83
2023-02-19T10:47:33.062Z,17.17
2023-02-19T10:48:57.423Z,16.27
2023-02-19T10:49:44.190Z,17.53
2023-02-19T10:50:56.091Z,17.03
2023-02-19T10:52:42.559Z,16.93
2023-02-19T10:54:41.349Z,16.43
2023-02-19T10:55:40.847Z,16.43
2023-02-19T10:56:21.340Z,16.03
2023-02-19T10:57:00.376Z,15.83
2023-02-19T10:57:40.587Z,15.53
2023-02-19T11:01:42.307Z,16.93
2023-02-19T11:03:24.104Z,18.03
2023-02-19T11:04:18.277Z,17.67
2023-02-19T11:05:16.668Z,17.57
2023-02-19T11:06:08.397Z,17.00
2023-02-19T11:06:49.033Z,16.57
2023-02-19T11:07:56.982Z,16.73
2023-02-19T11:09:01.484Z,17.30
2023-02-19T11:09:53.836Z,17.17
2023-02-19T11:10:42.806Z,16.97
2023-02-19T11:11:50.837Z,16.23
2023-02-19T11:13:38.005Z,15.80
2023-02-19T11:15:19.917Z,15.87
2023-02-19T11:16:46.763Z,16.70
2023-02-19T11:17:27.300Z,17.20
2023-02-19T11:18:32.996Z,17.00
2023-02-19T11:20:08.470Z,15.60
2023-02-19T11:20:54.687Z,15.53
2023-02-19T11:21:33.268Z,15.43
2023-02-19T11:22:19.394Z,14.70
2023-02-19T11:22:52.501Z,15.57
2023-02-19T11:23:31.550Z,16.33
2023-02-19T11:24:06.606Z,15.43
2023-02-19T11:24:40.643Z,15.70
2023-02-19T11:25:15.338Z,17.03
2023-02-19T11:25:50.232Z,15.97
2023-02-19T11:26:26.972Z,15.93
2023-02-19T11:29:24.753Z,15.47
2023-02-19T11:30:14.378Z,14.67
2023-02-19T11:31:47.316Z,15.73
2023-02-19T11:32:31.010Z,15.77
2023-02-19T11:33:22.108Z,16.10
2023-02-19T11:34:10.224Z,15.10
2023-02-19T11:34:51.525Z,14.83
2023-02-19T11:35:31.296Z,15.60
2023-02-19T11:36:27.671Z,15.53
2023-02-19T11:37:17.707Z,16.03
2023-02-19T11:38:22.018Z,15.27
2023-02-19T11:40:48.528Z,17.13
2023-02-19T11:42:18.317Z,16.43
2023-02-19T11:43:15.204Z,16.03
2023-02-19T11:44:25.858Z,15.97
2023-02-19T11:45:14.142Z,15.43
2023-02-19T11:46:00.679Z,15.47
2023-02-19T11:46:56.999Z,16.27
2023-02-19T11:48:05.801Z,16.60
2023-02-19T11:48:46.707Z,15.23
2023-02-19T11:49:50.343Z,16.20
2023-02-19T11:51:09.597Z,16.40
2023-02-19T11:52:00.321Z,15.83
2023-02-19T11:52:53.770Z,15.43
2023-02-19T11:53:49.661Z,14.90
2023-02-19T11:56:36.361Z,16.03
2023-02-19T11:58:09.370Z,16.97
2023-02-19T11:58:48.905Z,15.67
2023-02-19T11:59:33.778Z,16.73
2023-02-19T12:00:25.011Z,16.97
2023-02-19T12:01:54.196Z,16.00
2023-02-19T12:02:34.297Z,17.10
2023-02-19T12:03:38.655Z,17.37
2023-02-19T12:06:04.448Z,16.73
2023-02-19T12:08:41.362Z,15.73
2023-02-19T12:10:10.464Z,16.90
2023-02-19T12:11:03.753Z,16.77
2023-02-19T12:12:02.338Z,16.40
2023-02-19T12:13:06.583Z,17.20
2023-02-19T12:15:26.362Z,17.33
2023-02-19T12:16:30.816Z,17.23
2023-02-19T12:18:25.617Z,16.13
2023-02-19T12:19:05.445Z,17.53
2023-02-19T12:20:31.402Z,17.47
2023-02-19T12:23:01.740Z,17.50
2023-02-19T12:23:43.424Z,18.13
2023-02-19T12:24:35.392Z,17.80
2023-02-19T12:25:29.446Z,17.37
2023-02-19T12:26:28.600Z,17.50
2023-02-19T12:27:20.543Z,17.77
2023-02-19T12:28:20.921Z,17.33
2023-02-19T12:29:27.297Z,16.60
2023-02-19T12:30:31.972Z,15.70
2023-02-19T12:32:40.123Z,16.73
2023-02-19T12:33:44.190Z,16.93
2023-02-19T12:36:20.167Z,17.37
2023-02-19T12:37:23.827Z,16.83
2023-02-19T12:38:36.362Z,17.13
2023-02-19T12:39:30.344Z,17.13
2023-02-19T12:40:23.183Z,17.20
2023-02-19T12:41:20.872Z,17.53
2023-02-19T12:42:09.523Z,17.50
2023-02-19T12:43:03.397Z,16.10
2023-02-19T12:43:56.089Z,17.70
2023-02-19T12:44:52.630Z,16.93
2023-02-19T12:45:59.081Z,17.33
2023-02-19T12:47:57.844Z,17.43
2023-02-19T12:48:47.626Z,17.90
2023-02-19T12:50:30.025Z,18.23
2023-02-19T12:52:16.715Z,16.93
2023-02-19T12:54:19.549Z,17.77
2023-02-19T12:54:57.497Z,17.00
2023-02-19T12:56:05.420Z,17.43
2023-02-19T12:57:27.261Z,17.60
2023-02-19T12:58:57.328Z,17.60
2023-02-19T12:59:41.759Z,17.50
2023-02-19T13:00:39.542Z,17.87
2023-02-19T13:01:26.664Z,16.30